NCAR-RAP Real-Time Weather Data

Output produced by METARs form (19 June 2019  11:44 UTC)
found at http://weather.rap.ucar.edu/surface/
 
KCON 191051Z AUTO 00000KT 1/4SM FG VV002 16/15 A2988 RMK AO2 SLP117 T01560150
KCON 191041Z AUTO 00000KT 1/2SM FG VV002 16/15 A2988 RMK AO2 T01560150
KCON 191031Z AUTO 00000KT 1/2SM FG VV003 16/15 A2987 RMK AO2 T01560150
KCON 191015Z AUTO 00000KT 1/2SM FG VV002 15/15 A2988 RMK AO2 T01500150
KCON 190951Z AUTO 00000KT 1/4SM FG VV002 15/15 A2988 RMK AO2 SLP117 T01500150
KCON 190851Z AUTO 00000KT 1/4SM FG VV002 15/15 A2988 RMK AO2 SLP116 T01500150 56004
KCON 190846Z AUTO 28003KT 1/2SM FG VV002 15/15 A2988 RMK AO2
KCON 190751Z AUTO 00000KT 1/4SM FG VV002 16/16 A2988 RMK AO2 SLP117 T01560156
KCON 190651Z AUTO 00000KT 1/4SM FG VV002 16/16 A2989 RMK AO2 SLPNO T01610156
KCON 190638Z AUTO 00000KT 1/2SM FG VV002 16/16 A2989 RMK AO2 T01560156
KCON 190630Z AUTO 00000KT 1 1/4SM BR OVC002 16/15 A2989 RMK AO2 T01560150
KCON 190626Z AUTO 00000KT 2 1/2SM BR OVC002 16/15 A2989 RMK AO2 T01560150
KCON 190551Z AUTO 00000KT 10SM OVC004 16/15 A2990 RMK AO2 SLP125 T01560150 10200 20144 55002
KCON 190542Z AUTO 00000KT 10SM OVC004 16/14 A2990 RMK AO2 T01560144
KCON 190451Z AUTO 00000KT 10SM OVC008 16/14 A2990 RMK AO2 CIG 006V010 SLP124 T01560144 402280117
KCON 190435Z AUTO 08003KT 10SM BKN009 15/14 A2990 RMK AO2 T01500139
KCON 190425Z AUTO 00000KT 10SM SCT009 16/14 A2991 RMK AO2 T01560144
KCON 190351Z AUTO 00000KT 10SM CLR 16/15 A2990 RMK AO2 SLP125 T01610150
KCON 190251Z AUTO 12003KT 10SM CLR 16/14 A2991 RMK AO2 SLP128 T01610144 53002
KCON 190151Z AUTO 15005KT 10SM CLR 18/15 A2991 RMK AO2 SLP127 T01780150
KCON 190051Z AUTO VRB04KT 10SM FEW085 18/15 A2990 RMK AO2 SLP125 T01830150
KCON 182351Z AUTO 14003KT 10SM CLR 20/14 A2990 RMK AO2 SLP125 6//// T02000144 56006
KCON 182251Z AUTO 14003KT 10SM SCT036 21/14 A2991 RMK AO2 SLP127 T02110139
KCON 182151Z AUTO 16005KT 10SM CLR 22/14 A2991 RMK AO2 SLP128 T02170139
KCON 182051Z AUTO 19004KT 10SM CLR 22/13 A2992 RMK AO2 SLP131 6//// T02220133
KCON 181951Z AUTO 00000KT 10SM 22/13 A2993 RMK AO2 SLP133 T02170128
KCON 181751Z AUTO 22/12 A2995 RMK AO2 SLP141 T02220122 10228 20167 57014 PWINO $
KCON 181651Z AUTO 15005KT CLR 22/12 A2996 RMK AO2 SLP146 T02170117
KCON 181551Z AUTO VRB06KT CLR 22/11 A2998 RMK AO2 SLP150 T02170111
KCON 181451Z AUTO VRB03KT CLR 21/12 A2999 RMK AO2 SLP155 T02060117 56003